createdAt,value
2022-10-30T00:01:08.657Z,72.34
2022-10-30T00:03:43.395Z,71.52
2022-10-30T00:06:11.634Z,70.57
2022-10-30T00:08:39.825Z,69.52
2022-10-30T00:11:09.374Z,69.61
2022-10-30T00:13:37.568Z,69.35
2022-10-30T00:16:07.256Z,70.18
2022-10-30T00:18:36.290Z,70.26
2022-10-30T00:21:10.935Z,70.25
2022-10-30T00:23:39.734Z,71.26
2022-10-30T00:26:07.978Z,72.45
2022-10-30T00:28:35.634Z,71.81
2022-10-30T00:31:05.368Z,73.60
2022-10-30T00:33:32.848Z,75.37
2022-10-30T00:36:00.558Z,73.24
2022-10-30T00:38:29.913Z,73.47
2022-10-30T00:40:57.147Z,75.27
2022-10-30T00:43:30.535Z,74.64
2022-10-30T00:46:02.348Z,73.30
2022-10-30T00:48:29.898Z,75.52
2022-10-30T00:51:00.403Z,75.97
2022-10-30T00:53:30.069Z,75.27
2022-10-30T00:56:02.740Z,75.16
2022-10-30T00:58:34.730Z,76.82
2022-10-30T01:01:07.849Z,75.52
2022-10-30T01:03:37.191Z,75.92
2022-10-30T01:06:09.082Z,75.00
2022-10-30T01:08:38.670Z,76.94
2022-10-30T01:11:06.651Z,77.53
2022-10-30T01:13:36.720Z,76.43
2022-10-30T01:16:21.552Z,75.80
2022-10-30T01:18:58.784Z,75.93
2022-10-30T01:21:44.963Z,75.10
2022-10-30T01:24:28.121Z,74.74
2022-10-30T01:27:07.183Z,74.64
2022-10-30T01:29:49.048Z,74.16
2022-10-30T01:32:33.908Z,73.42
2022-10-30T01:35:06.571Z,73.38
2022-10-30T01:37:36.657Z,73.68
2022-10-30T01:40:10.588Z,75.28
2022-10-30T01:42:51.301Z,74.96
2022-10-30T01:45:32.768Z,76.99
2022-10-30T01:48:28.015Z,78.68
2022-10-30T01:51:00.027Z,77.05
2022-10-30T01:53:42.249Z,74.01
2022-10-30T01:56:20.722Z,75.94
2022-10-30T01:58:55.095Z,74.82
2022-10-30T02:01:25.598Z,75.80
2022-10-30T02:03:53.372Z,75.04
2022-10-30T02:06:21.206Z,74.63
2022-10-30T02:08:48.972Z,76.18
2022-10-30T02:11:18.594Z,76.74
2022-10-30T02:13:46.011Z,76.72
2022-10-30T02:16:13.906Z,77.37
2022-10-30T02:18:41.384Z,77.68
2022-10-30T02:21:10.941Z,76.97
2022-10-30T02:23:38.724Z,77.56
2022-10-30T02:26:06.514Z,77.73
2022-10-30T02:28:34.115Z,77.92
2022-10-30T02:31:01.811Z,76.54
2022-10-30T02:33:29.163Z,75.76
2022-10-30T02:35:56.540Z,72.40
2022-10-30T02:38:26.280Z,72.32
2022-10-30T02:40:53.782Z,73.74
2022-10-30T02:43:21.146Z,77.44
2022-10-30T02:45:51.151Z,77.76
2022-10-30T02:48:18.554Z,77.81
2022-10-30T02:50:45.844Z,77.85
2022-10-30T02:53:13.989Z,76.89
2022-10-30T02:55:42.657Z,77.13
2022-10-30T02:58:09.998Z,77.08
2022-10-30T03:00:37.931Z,78.99
2022-10-30T03:03:05.416Z,79.24
2022-10-30T03:05:32.812Z,79.43
2022-10-30T03:08:01.167Z,76.08
2022-10-30T03:10:28.784Z,75.86
2022-10-30T03:12:58.833Z,78.10
2022-10-30T03:15:26.519Z,79.14
2022-10-30T03:17:53.993Z,77.74
2022-10-30T03:20:21.556Z,76.39
2022-10-30T03:22:49.419Z,76.23
2022-10-30T03:25:16.940Z,76.78
2022-10-30T03:27:44.646Z,76.68
2022-10-30T03:30:13.953Z,76.05
2022-10-30T03:32:41.302Z,76.55
2022-10-30T03:35:09.257Z,76.32
2022-10-30T03:37:36.555Z,76.67
2022-10-30T03:40:04.439Z,77.01
2022-10-30T03:42:32.035Z,77.27
2022-10-30T03:45:02.436Z,78.83
2022-10-30T03:47:31.474Z,77.42
2022-10-30T03:49:59.232Z,76.14
2022-10-30T03:52:27.715Z,76.31
2022-10-30T03:54:54.981Z,76.37
2022-10-30T03:57:22.675Z,75.48
2022-10-30T03:59:49.961Z,76.05
2022-10-30T04:02:17.513Z,77.56
2022-10-30T04:04:48.506Z,78.30
2022-10-30T04:07:15.831Z,78.49
2022-10-30T04:09:43.236Z,78.97
2022-10-30T04:12:11.254Z,78.92
2022-10-30T04:14:38.473Z,76.43
2022-10-30T04:17:05.965Z,75.53
2022-10-30T04:19:33.790Z,74.91
2022-10-30T04:22:02.494Z,74.05
2022-10-30T04:24:29.749Z,73.23
2022-10-30T04:26:57.390Z,72.47
2022-10-30T04:29:24.641Z,72.00
2022-10-30T04:31:52.058Z,72.51
2022-10-30T04:34:19.673Z,72.16
2022-10-30T04:36:47.006Z,73.82
2022-10-30T04:39:15.841Z,75.08
2022-10-30T04:41:43.888Z,75.50
2022-10-30T04:44:11.326Z,73.55
2022-10-30T04:46:38.638Z,74.78
2022-10-30T04:49:06.524Z,74.57
2022-10-30T04:51:33.981Z,73.93
2022-10-30T04:54:01.377Z,73.89
2022-10-30T04:56:30.662Z,72.53
2022-10-30T04:58:57.956Z,71.17
2022-10-30T05:01:25.839Z,72.34
2022-10-30T05:03:54.940Z,73.92
2022-10-30T05:06:24.760Z,76.22
2022-10-30T05:08:52.571Z,76.91
2022-10-30T05:11:20.284Z,77.89
2022-10-30T05:13:49.050Z,76.56
2022-10-30T05:16:16.760Z,75.19
2022-10-30T05:18:44.384Z,76.10
2022-10-30T05:21:12.814Z,74.22
2022-10-30T05:26:24.945Z,75.35
2022-10-30T05:28:53.759Z,74.83
2022-10-30T05:31:21.258Z,75.12
2022-10-30T05:33:49.013Z,74.75
2022-10-30T05:36:16.258Z,73.52
2022-10-30T05:38:44.119Z,77.71
2022-10-30T05:41:11.788Z,78.96
2022-10-30T05:43:39.691Z,79.08
2022-10-30T05:46:08.786Z,78.85
2022-10-30T05:48:36.353Z,78.12
2022-10-30T05:51:04.210Z,78.31
2022-10-30T05:53:31.563Z,77.98
2022-10-30T05:55:59.545Z,77.16
2022-10-30T05:58:27.786Z,76.99
2022-10-30T06:00:55.351Z,77.65
2022-10-30T06:03:24.841Z,78.45
2022-10-30T06:05:52.222Z,78.79
2022-10-30T06:08:20.326Z,78.69
2022-10-30T06:10:47.707Z,78.72
2022-10-30T06:13:15.435Z,78.62
2022-10-30T06:15:43.593Z,78.09
2022-10-30T06:18:11.237Z,78.42
2022-10-30T06:20:40.223Z,78.71
2022-10-30T06:23:10.098Z,77.17
2022-10-30T06:25:41.154Z,76.56
2022-10-30T06:28:10.468Z,77.47
2022-10-30T06:30:37.748Z,78.83
2022-10-30T06:33:06.244Z,79.16
2022-10-30T06:35:34.187Z,79.27
2022-10-30T06:38:02.910Z,78.62
2022-10-30T06:40:30.868Z,79.56
2022-10-30T06:42:59.256Z,79.55
2022-10-30T06:45:27.039Z,80.27
2022-10-30T06:47:54.575Z,81.10
2022-10-30T06:50:22.518Z,80.96
2022-10-30T06:52:50.073Z,81.02
2022-10-30T06:55:19.015Z,80.41
2022-10-30T06:57:46.801Z,80.23
2022-10-30T07:00:14.805Z,80.04
2022-10-30T07:02:42.714Z,80.40
2022-10-30T07:05:10.557Z,80.18
2022-10-30T07:07:38.173Z,80.19
2022-10-30T07:10:06.568Z,79.91
2022-10-30T07:12:36.186Z,79.57
2022-10-30T07:15:03.863Z,79.74
2022-10-30T07:17:31.294Z,79.72
2022-10-30T07:19:59.009Z,80.46
2022-10-30T07:22:26.562Z,79.54
2022-10-30T07:24:53.962Z,78.93
2022-10-30T07:27:21.578Z,79.08
2022-10-30T07:29:50.402Z,77.56
2022-10-30T07:32:17.850Z,77.68
2022-10-30T07:34:45.521Z,78.05
2022-10-30T07:37:12.914Z,77.56
2022-10-30T07:39:40.684Z,77.69
2022-10-30T07:42:08.541Z,76.07
2022-10-30T07:44:37.569Z,74.38
2022-10-30T07:47:06.785Z,75.44
2022-10-30T07:49:34.698Z,74.75
2022-10-30T07:52:02.121Z,74.08
2022-10-30T07:54:29.975Z,72.77
2022-10-30T07:56:57.342Z,72.29
2022-10-30T07:59:28.480Z,72.09
2022-10-30T08:01:56.968Z,71.13
2022-10-30T08:04:25.823Z,70.49
2022-10-30T08:06:53.941Z,68.27
2022-10-30T08:09:21.616Z,68.06
2022-10-30T08:11:49.759Z,67.29
2022-10-30T08:14:17.066Z,66.88
2022-10-30T08:16:44.868Z,66.66
2022-10-30T08:19:12.254Z,66.80
2022-10-30T08:21:41.662Z,65.61
2022-10-30T08:24:09.465Z,66.09
2022-10-30T08:26:37.352Z,66.21
2022-10-30T08:29:04.866Z,67.76
2022-10-30T08:31:32.786Z,67.52
2022-10-30T08:34:00.181Z,68.50
2022-10-30T08:36:27.668Z,67.29
2022-10-30T08:38:56.862Z,66.69
2022-10-30T08:41:24.544Z,66.91
2022-10-30T08:43:52.510Z,67.74
2022-10-30T08:46:19.870Z,66.63
2022-10-30T08:48:47.588Z,65.86
2022-10-30T08:51:15.035Z,64.82
2022-10-30T08:53:42.979Z,64.57
2022-10-30T08:56:11.923Z,64.80
2022-10-30T08:58:39.874Z,64.08
2022-10-30T09:01:07.309Z,62.85
2022-10-30T09:03:35.515Z,62.89
2022-10-30T09:06:03.129Z,63.00
2022-10-30T09:08:30.750Z,62.78
2022-10-30T09:10:58.925Z,63.09
2022-10-30T09:13:27.967Z,62.61
2022-10-30T09:15:59.777Z,62.58
2022-10-30T09:18:27.951Z,62.45
2022-10-30T09:20:55.401Z,60.68
2022-10-30T09:23:23.060Z,61.07
2022-10-30T09:25:50.951Z,62.04
2022-10-30T09:28:18.492Z,62.15
2022-10-30T09:30:47.385Z,60.84
2022-10-30T09:33:15.131Z,59.68
2022-10-30T09:35:42.772Z,59.92
2022-10-30T09:38:10.228Z,58.87
2022-10-30T09:40:53.449Z,58.33
2022-10-30T09:43:32.631Z,57.83
2022-10-30T09:46:20.693Z,57.45
2022-10-30T09:49:02.456Z,58.63
2022-10-30T09:51:55.474Z,57.39
2022-10-30T09:54:32.884Z,56.66
2022-10-30T09:57:05.850Z,56.62
2022-10-30T09:59:45.498Z,57.02
2022-10-30T10:02:31.480Z,56.46
2022-10-30T10:05:04.242Z,56.77
2022-10-30T10:07:35.459Z,55.67
2022-10-30T10:10:08.229Z,55.51
2022-10-30T10:12:43.671Z,55.20
2022-10-30T10:15:16.874Z,55.22
2022-10-30T10:17:46.615Z,55.96
2022-10-30T10:20:27.117Z,55.67
2022-10-30T10:22:57.348Z,54.03
2022-10-30T10:25:27.397Z,55.26
2022-10-30T10:28:07.587Z,55.11
2022-10-30T10:30:44.240Z,54.41
2022-10-30T10:33:46.367Z,55.08
2022-10-30T10:36:25.144Z,54.58
2022-10-30T10:39:14.790Z,54.39
2022-10-30T10:41:58.174Z,52.49
2022-10-30T10:44:37.981Z,51.10
2022-10-30T10:47:27.197Z,50.39
2022-10-30T10:50:14.421Z,51.22
2022-10-30T10:52:47.628Z,49.46
2022-10-30T10:55:19.016Z,50.35
2022-10-30T10:57:48.265Z,50.14
2022-10-30T11:00:18.598Z,49.90
2022-10-30T11:02:54.815Z,49.66
2022-10-30T11:05:32.674Z,50.38
2022-10-30T11:08:10.942Z,49.82
2022-10-30T11:10:41.626Z,49.28
2022-10-30T11:13:11.886Z,48.69
2022-10-30T11:15:55.143Z,48.29
2022-10-30T11:18:22.625Z,47.85
2022-10-30T11:20:57.775Z,47.52
2022-10-30T11:23:33.386Z,48.51
2022-10-30T11:26:02.448Z,49.46
2022-10-30T11:28:40.647Z,47.36
2022-10-30T11:31:19.568Z,48.05
2022-10-30T11:33:47.781Z,47.50
2022-10-30T11:36:19.126Z,47.83
2022-10-30T11:38:46.582Z,49.02
2022-10-30T11:41:15.348Z,48.43
2022-10-30T11:43:47.199Z,48.11
2022-10-30T11:46:22.590Z,48.51
2022-10-30T11:48:50.102Z,48.21
2022-10-30T11:51:32.345Z,47.68
2022-10-30T11:54:01.172Z,46.87
2022-10-30T11:56:30.744Z,46.96
2022-10-30T11:59:02.302Z,46.09
2022-10-30T12:01:32.201Z,45.88
2022-10-30T12:04:14.760Z,46.65
2022-10-30T12:06:44.224Z,44.99
2022-10-30T12:09:13.846Z,46.79
2022-10-30T12:11:43.654Z,44.94
2022-10-30T12:14:19.455Z,45.89
2022-10-30T12:16:48.742Z,46.40
2022-10-30T12:19:18.342Z,46.54
2022-10-30T12:21:49.752Z,47.05
2022-10-30T12:24:21.509Z,46.20
2022-10-30T12:26:51.423Z,46.26
2022-10-30T12:29:21.543Z,46.59
2022-10-30T12:31:55.837Z,47.42
2022-10-30T12:34:38.948Z,47.90
2022-10-30T12:37:13.222Z,48.06
2022-10-30T12:39:50.263Z,46.82
2022-10-30T12:42:18.887Z,46.84
2022-10-30T12:44:52.094Z,47.58
2022-10-30T12:47:27.268Z,45.22
2022-10-30T12:50:00.998Z,42.55
2022-10-30T12:52:36.086Z,43.07
2022-10-30T12:55:13.476Z,42.42
2022-10-30T12:57:46.551Z,42.62
2022-10-30T13:00:16.751Z,43.33
2022-10-30T13:02:54.019Z,43.53
2022-10-30T13:05:34.033Z,42.54
2022-10-30T13:08:13.093Z,42.27
2022-10-30T13:10:44.542Z,41.87
2022-10-30T13:13:14.636Z,40.16
2022-10-30T13:15:47.200Z,41.74
2022-10-30T13:18:17.593Z,41.54
2022-10-30T13:20:58.920Z,40.50
2022-10-30T13:23:35.635Z,41.21
2022-10-30T13:26:15.841Z,41.05
2022-10-30T13:28:52.440Z,41.03
2022-10-30T13:31:43.237Z,41.52
2022-10-30T13:34:26.311Z,41.87
2022-10-30T13:36:58.845Z,41.76
2022-10-30T13:39:34.664Z,41.85
2022-10-30T13:42:18.217Z,42.97
2022-10-30T13:44:55.888Z,42.45
2022-10-30T13:47:41.130Z,42.93
2022-10-30T13:50:34.202Z,41.65
2022-10-30T13:53:05.452Z,41.84
2022-10-30T13:55:50.009Z,41.97
2022-10-30T13:58:25.708Z,42.66
2022-10-30T14:01:01.617Z,41.82
2022-10-30T14:03:39.276Z,42.39
2022-10-30T14:06:14.378Z,42.96
2022-10-30T14:08:49.147Z,42.81
2022-10-30T14:11:18.423Z,42.87
2022-10-30T14:13:50.298Z,42.84
2022-10-30T14:17:03.616Z,43.12
2022-10-30T14:19:31.083Z,42.27
2022-10-30T14:21:58.835Z,42.86
2022-10-30T14:24:29.599Z,43.97
2022-10-30T14:27:11.418Z,44.73
2022-10-30T14:29:49.955Z,43.89
2022-10-30T14:32:41.566Z,44.33
2022-10-30T14:35:32.846Z,44.68
2022-10-30T14:38:16.590Z,44.35
2022-10-30T14:40:56.115Z,46.53
2022-10-30T14:43:31.269Z,45.33
2022-10-30T14:46:01.625Z,44.81
2022-10-30T14:48:41.585Z,44.68
2022-10-30T14:51:16.642Z,44.88
2022-10-30T14:53:56.549Z,46.12
2022-10-30T14:56:34.501Z,46.02
2022-10-30T14:59:22.351Z,46.00
2022-10-30T15:02:00.190Z,46.20
2022-10-30T15:04:40.656Z,46.82
2022-10-30T15:07:17.718Z,48.16
2022-10-30T15:09:58.152Z,48.22
2022-10-30T15:12:40.942Z,48.33
2022-10-30T15:15:14.592Z,48.11
2022-10-30T15:17:44.513Z,48.34
2022-10-30T15:20:18.354Z,50.48
2022-10-30T15:22:49.560Z,49.29
2022-10-30T15:25:19.464Z,49.36
2022-10-30T15:27:50.742Z,50.57
2022-10-30T15:30:22.113Z,52.93
2022-10-30T15:32:50.047Z,55.96
2022-10-30T15:35:19.304Z,51.67
2022-10-30T15:38:01.484Z,51.03
2022-10-30T15:40:30.236Z,53.96
2022-10-30T15:43:01.041Z,53.40
2022-10-30T15:45:33.965Z,54.92
2022-10-30T15:48:08.305Z,57.23
2022-10-30T15:50:38.583Z,61.01
2022-10-30T15:53:07.495Z,62.10
2022-10-30T15:55:35.691Z,62.64
2022-10-30T15:58:05.457Z,63.15
2022-10-30T16:00:36.356Z,63.39
2022-10-30T16:03:06.406Z,62.68
2022-10-30T16:05:35.028Z,62.06
2022-10-30T16:08:04.124Z,62.07
2022-10-30T16:10:34.714Z,59.90
2022-10-30T16:13:04.006Z,63.68
2022-10-30T16:15:38.736Z,60.14
2022-10-30T16:18:14.700Z,63.96
2022-10-30T16:20:45.667Z,64.34
2022-10-30T16:23:14.294Z,62.82
2022-10-30T16:25:47.008Z,60.11
2022-10-30T16:28:27.382Z,62.81
2022-10-30T16:30:59.001Z,58.92
2022-10-30T16:33:28.369Z,58.87
2022-10-30T16:35:57.085Z,59.50
2022-10-30T16:38:27.870Z,59.63
2022-10-30T16:40:55.946Z,59.50
2022-10-30T16:43:27.235Z,59.31
2022-10-30T16:45:57.502Z,60.52
2022-10-30T16:48:34.503Z,60.44
2022-10-30T16:51:04.013Z,61.83
2022-10-30T16:53:32.220Z,61.15
2022-10-30T16:56:00.261Z,61.39
2022-10-30T16:58:30.622Z,64.43
2022-10-30T17:01:04.618Z,63.76
2022-10-30T17:03:37.379Z,61.28
2022-10-30T17:06:07.491Z,58.97
2022-10-30T17:08:40.885Z,62.84
2022-10-30T17:11:17.781Z,64.24
2022-10-30T17:13:59.267Z,66.08
2022-10-30T17:16:30.091Z,66.69
2022-10-30T17:18:59.674Z,65.11
2022-10-30T17:21:30.587Z,66.56
2022-10-30T17:24:00.089Z,69.71
2022-10-30T17:26:29.649Z,69.20
2022-10-30T17:28:56.962Z,70.22
2022-10-30T17:31:30.155Z,74.08
2022-10-30T17:34:11.720Z,74.64
2022-10-30T17:36:39.119Z,75.38
2022-10-30T17:39:07.145Z,74.53
2022-10-30T17:41:35.543Z,73.66
2022-10-30T17:44:03.855Z,73.01
2022-10-30T17:46:33.002Z,73.51
2022-10-30T17:49:03.371Z,67.02
2022-10-30T17:51:30.783Z,72.94
2022-10-30T17:53:58.191Z,72.05
2022-10-30T17:56:28.622Z,74.96
2022-10-30T17:58:56.236Z,70.27
2022-10-30T18:01:26.278Z,71.57
2022-10-30T18:03:56.170Z,70.39
2022-10-30T18:06:27.860Z,74.97
2022-10-30T18:08:55.593Z,68.68
2022-10-30T18:11:24.623Z,74.08
2022-10-30T18:13:53.020Z,71.68
2022-10-30T18:16:20.955Z,72.97
2022-10-30T18:18:48.893Z,74.01
2022-10-30T18:21:19.908Z,72.58
2022-10-30T18:23:52.699Z,69.60
2022-10-30T18:26:22.066Z,70.04
2022-10-30T18:28:50.492Z,70.09
2022-10-30T18:31:20.232Z,70.17
2022-10-30T18:33:48.307Z,70.20
2022-10-30T18:36:20.367Z,69.10
2022-10-30T18:38:48.843Z,68.69
2022-10-30T18:41:18.673Z,69.58
2022-10-30T18:43:47.343Z,66.47
2022-10-30T18:46:15.623Z,66.88
2022-10-30T18:48:43.628Z,71.89
2022-10-30T18:51:16.429Z,70.14
2022-10-30T18:53:46.356Z,66.29
2022-10-30T18:56:14.040Z,68.78
2022-10-30T18:58:42.037Z,68.28
2022-10-30T19:01:12.313Z,69.35
2022-10-30T19:03:40.834Z,69.22
2022-10-30T19:06:11.888Z,68.92
2022-10-30T19:08:40.115Z,67.39
2022-10-30T19:11:12.156Z,70.91
2022-10-30T19:13:40.185Z,71.01
2022-10-30T19:16:11.501Z,71.23
2022-10-30T19:18:38.865Z,71.77
2022-10-30T19:21:10.302Z,71.43
2022-10-30T19:23:42.359Z,71.69
2022-10-30T19:28:39.300Z,71.62
2022-10-30T19:31:08.306Z,71.07
2022-10-30T19:33:35.794Z,70.75
2022-10-30T19:36:04.866Z,69.96
2022-10-30T19:38:34.331Z,69.78
2022-10-30T19:41:02.646Z,69.55
2022-10-30T19:43:31.630Z,70.19
2022-10-30T19:45:59.653Z,68.60
2022-10-30T19:48:56.205Z,69.37
2022-10-30T19:51:15.034Z,71.86
2022-10-30T19:53:42.899Z,76.52
2022-10-30T19:56:12.930Z,76.74
2022-10-30T19:58:41.810Z,79.75
2022-10-30T20:01:11.438Z,78.09
2022-10-30T20:03:38.955Z,74.81
2022-10-30T20:06:07.714Z,72.92
2022-10-30T20:08:35.392Z,73.66
2022-10-30T20:11:03.688Z,74.01
2022-10-30T20:13:31.116Z,74.48
2022-10-30T20:16:01.345Z,74.42
2022-10-30T20:18:31.619Z,73.31
2022-10-30T20:21:00.646Z,72.27
2022-10-30T20:23:28.769Z,73.49
2022-10-30T20:25:59.899Z,75.32
2022-10-30T20:28:31.267Z,76.67
2022-10-30T20:31:00.967Z,74.15
2022-10-30T20:33:29.205Z,75.05
2022-10-30T20:35:57.410Z,75.66
2022-10-30T20:38:27.214Z,77.04
2022-10-30T20:40:55.281Z,75.15
2022-10-30T20:43:30.299Z,74.62
2022-10-30T20:46:02.530Z,74.94
2022-10-30T20:48:30.118Z,74.90
2022-10-30T20:51:01.079Z,76.37
2022-10-30T20:53:29.326Z,76.87
2022-10-30T20:55:57.514Z,76.84
2022-10-30T20:58:25.004Z,76.85
2022-10-30T21:00:54.436Z,76.31
2022-10-30T21:03:24.070Z,75.64
2022-10-30T21:05:56.056Z,76.77
2022-10-30T21:08:23.832Z,78.01
2022-10-30T21:10:51.330Z,78.08
2022-10-30T21:13:18.644Z,77.19
2022-10-30T21:15:46.756Z,76.93
2022-10-30T21:18:14.443Z,73.07
2022-10-30T21:20:43.446Z,71.87
2022-10-30T21:23:13.072Z,74.25
2022-10-30T21:25:40.716Z,73.73
2022-10-30T21:28:08.180Z,73.79
2022-10-30T21:30:36.296Z,73.97
2022-10-30T21:33:04.263Z,74.46
2022-10-30T21:35:31.886Z,74.95
2022-10-30T21:38:01.997Z,73.99
2022-10-30T21:40:29.525Z,73.73
2022-10-30T21:43:01.300Z,72.51
2022-10-30T21:45:32.358Z,71.70
2022-10-30T21:47:59.951Z,70.78
2022-10-30T21:50:27.537Z,69.99
2022-10-30T21:52:55.161Z,71.67
2022-10-30T21:55:24.038Z,72.32
2022-10-30T21:57:51.881Z,73.75
2022-10-30T22:00:19.683Z,73.72
2022-10-30T22:02:47.486Z,73.81
2022-10-30T22:05:15.291Z,73.46
2022-10-30T22:07:43.903Z,73.36
2022-10-30T22:10:11.798Z,73.95
2022-10-30T22:12:40.771Z,74.83
2022-10-30T22:15:09.540Z,76.20
2022-10-30T22:17:36.847Z,74.91
2022-10-30T22:20:04.425Z,74.01
2022-10-30T22:22:32.656Z,73.68
2022-10-30T22:25:00.175Z,74.48
2022-10-30T22:27:29.619Z,75.67
2022-10-30T22:29:58.737Z,76.21
2022-10-30T22:32:26.368Z,76.43
2022-10-30T22:34:54.584Z,77.34
2022-10-30T22:37:21.886Z,77.58
2022-10-30T22:39:49.293Z,77.34
2022-10-30T22:42:16.873Z,77.63
2022-10-30T22:44:44.811Z,76.94
2022-10-30T22:47:13.547Z,76.81
2022-10-30T22:49:41.478Z,76.03
2022-10-30T22:52:08.873Z,76.88
2022-10-30T22:54:36.365Z,76.75
2022-10-30T22:57:04.144Z,76.75
2022-10-30T22:59:31.380Z,76.18
2022-10-30T23:01:59.104Z,76.19
2022-10-30T23:04:28.375Z,76.36
2022-10-30T23:06:55.920Z,76.15
2022-10-30T23:09:24.275Z,75.95
2022-10-30T23:11:51.612Z,74.49
2022-10-30T23:14:19.683Z,71.10
2022-10-30T23:16:47.038Z,69.43
2022-10-30T23:19:14.746Z,68.09
2022-10-30T23:21:43.661Z,68.58
2022-10-30T23:24:12.207Z,69.03
2022-10-30T23:26:39.847Z,69.43
2022-10-30T23:29:07.965Z,71.16
2022-10-30T23:31:37.865Z,71.90
2022-10-30T23:34:08.714Z,73.61
2022-10-30T23:36:36.957Z,74.21
2022-10-30T23:39:08.007Z,69.75
2022-10-30T23:41:35.447Z,76.50
2022-10-30T23:44:06.134Z,78.44
2022-10-30T23:46:35.128Z,76.51
2022-10-30T23:49:04.005Z,74.86
2022-10-30T23:51:31.438Z,76.70
2022-10-30T23:53:59.328Z,75.16
2022-10-30T23:56:28.366Z,73.31
2022-10-30T23:58:56.604Z,74.47
